createdAt,value
2023-03-11T00:00:40.746Z,93652.79
2023-03-11T00:03:24.997Z,93648.50
2023-03-11T00:05:54.257Z,93645.08
2023-03-11T00:08:24.434Z,93644.83
2023-03-11T00:10:55.434Z,93645.52
2023-03-11T00:13:23.549Z,93641.71
2023-03-11T00:15:56.333Z,93644.20
2023-03-11T00:18:27.241Z,93641.81
2023-03-11T00:20:57.472Z,93645.82
2023-03-11T00:23:27.073Z,93645.36
2023-03-11T00:25:55.144Z,93645.59
2023-03-11T00:28:26.224Z,93643.53
2023-03-11T00:30:54.666Z,93638.45
2023-03-11T00:33:22.750Z,93633.92
2023-03-11T00:35:51.338Z,93624.33
2023-03-11T00:38:21.663Z,93623.97
2023-03-11T00:40:50.229Z,93627.89
2023-03-11T00:43:18.181Z,93627.29
2023-03-11T00:45:46.215Z,93628.58
2023-03-11T00:48:15.091Z,93619.23
2023-03-11T00:50:43.223Z,93617.55
2023-03-11T00:53:12.354Z,93611.16
2023-03-11T00:55:41.272Z,93609.35
2023-03-11T00:58:12.043Z,93614.20
2023-03-11T01:00:52.444Z,93613.40
2023-03-11T01:03:21.157Z,93612.75
2023-03-11T01:05:49.612Z,93608.99
2023-03-11T01:08:18.311Z,93603.80
2023-03-11T01:10:46.304Z,93604.11
2023-03-11T01:13:14.384Z,93600.44
2023-03-11T01:15:43.083Z,93602.40
2023-03-11T01:18:11.081Z,93598.02
2023-03-11T01:20:39.202Z,93602.95
2023-03-11T01:23:08.628Z,93600.91
2023-03-11T01:25:36.762Z,93595.92
2023-03-11T01:28:05.706Z,93594.63
2023-03-11T01:30:34.553Z,93595.70
2023-03-11T01:33:03.580Z,93595.50
2023-03-11T01:35:32.310Z,93591.00
2023-03-11T01:38:00.334Z,93592.10
2023-03-11T01:40:39.267Z,93594.08
2023-03-11T01:43:39.003Z,93595.45
2023-03-11T01:46:09.988Z,93599.93
2023-03-11T01:48:39.008Z,93594.13
2023-03-11T01:51:07.697Z,93596.34
2023-03-11T01:53:35.773Z,93590.92
2023-03-11T01:56:05.681Z,93593.77
2023-03-11T01:58:42.015Z,93588.85
2023-03-11T02:01:10.110Z,93587.90
2023-03-11T02:03:40.404Z,93587.38
2023-03-11T02:06:13.121Z,93588.18
2023-03-11T02:08:42.571Z,93595.58
2023-03-11T02:11:19.689Z,93594.10
2023-03-11T02:13:49.139Z,93594.05
2023-03-11T02:16:18.575Z,93593.86
2023-03-11T02:18:46.580Z,93593.52
2023-03-11T02:21:30.275Z,93594.01
2023-03-11T02:24:39.237Z,93589.03
2023-03-11T02:27:11.430Z,93593.36
2023-03-11T02:29:42.151Z,93589.53
2023-03-11T02:32:11.062Z,93589.50
2023-03-11T02:34:42.796Z,93587.66
2023-03-11T02:37:14.261Z,93593.39
2023-03-11T02:39:48.206Z,93589.30
2023-03-11T02:42:31.092Z,93589.23
2023-03-11T02:45:04.686Z,93594.35
2023-03-11T02:47:34.824Z,93581.01
2023-03-11T02:50:02.906Z,93586.44
2023-03-11T02:52:34.386Z,93583.13
2023-03-11T02:55:03.606Z,93577.98
2023-03-11T02:57:31.543Z,93580.98
2023-03-11T03:00:02.362Z,93577.83
2023-03-11T03:02:30.311Z,93573.48
2023-03-11T03:04:58.268Z,93573.48
2023-03-11T03:07:26.508Z,93579.55
2023-03-11T03:09:56.645Z,93585.78
2023-03-11T03:12:24.658Z,93588.65
2023-03-11T03:14:53.084Z,93582.79
2023-03-11T03:17:21.155Z,93576.95
2023-03-11T03:19:49.628Z,93579.55
2023-03-11T03:22:17.626Z,93577.30
2023-03-11T03:24:46.244Z,93586.08
2023-03-11T03:27:14.657Z,93577.48
2023-03-11T03:29:42.577Z,93581.33
2023-03-11T03:32:11.057Z,93577.13
2023-03-11T03:34:39.072Z,93584.45
2023-03-11T03:37:07.112Z,93582.61
2023-03-11T03:39:35.441Z,93576.29
2023-03-11T03:42:03.866Z,93577.64
2023-03-11T03:44:32.332Z,93573.23
2023-03-11T03:47:00.463Z,93576.11
2023-03-11T03:49:28.714Z,93578.48
2023-03-11T03:51:57.156Z,93581.59
2023-03-11T03:54:31.722Z,93584.96
2023-03-11T03:56:59.676Z,93587.81
2023-03-11T03:59:28.080Z,93585.98
2023-03-11T04:01:58.030Z,93587.92
2023-03-11T04:04:27.131Z,93584.83
2023-03-11T04:06:55.322Z,93584.04
2023-03-11T04:09:23.570Z,93581.42
2023-03-11T04:11:51.554Z,93579.04
2023-03-11T04:14:20.091Z,93584.96
2023-03-11T04:16:53.618Z,93583.09
2023-03-11T04:19:22.067Z,93588.30
2023-03-11T04:21:52.059Z,93586.00
2023-03-11T04:24:20.829Z,93582.63
2023-03-11T04:26:49.174Z,93580.70
2023-03-11T04:29:17.958Z,93581.70
2023-03-11T04:31:49.611Z,93574.95
2023-03-11T04:34:18.159Z,93577.63
2023-03-11T04:36:46.137Z,93574.14
2023-03-11T04:39:15.324Z,93578.27
2023-03-11T04:41:44.447Z,93574.48
2023-03-11T04:44:16.481Z,93573.71
2023-03-11T04:46:44.758Z,93575.27
2023-03-11T04:49:13.132Z,93579.45
2023-03-11T04:51:41.881Z,93579.23
2023-03-11T04:54:10.614Z,93579.48
2023-03-11T04:56:39.577Z,93578.19
2023-03-11T04:59:07.857Z,93576.82
2023-03-11T05:01:36.851Z,93576.11
2023-03-11T05:04:05.990Z,93582.20
2023-03-11T05:06:34.172Z,93580.95
2023-03-11T05:09:04.695Z,93584.80
2023-03-11T05:11:36.148Z,93588.77
2023-03-11T05:14:04.705Z,93597.73
2023-03-11T05:16:33.287Z,93601.98
2023-03-11T05:19:01.690Z,93601.11
2023-03-11T05:21:30.116Z,93603.80
2023-03-11T05:23:58.120Z,93604.19
2023-03-11T05:26:26.312Z,93601.58
2023-03-11T05:28:54.428Z,93600.74
2023-03-11T05:31:22.431Z,93593.76
2023-03-11T05:33:50.474Z,93596.73
2023-03-11T05:36:18.516Z,93593.08
2023-03-11T05:38:47.237Z,93597.74
2023-03-11T05:41:15.915Z,93592.11
2023-03-11T05:43:44.295Z,93593.34
2023-03-11T05:46:12.763Z,93601.00
2023-03-11T05:48:40.817Z,93605.05
2023-03-11T05:51:11.007Z,93601.56
2023-03-11T05:53:42.814Z,93600.23
2023-03-11T05:56:10.777Z,93596.81
2023-03-11T05:58:38.800Z,93598.52
2023-03-11T06:01:16.058Z,93602.54
2023-03-11T06:03:44.858Z,93605.04
2023-03-11T06:06:13.722Z,93608.70
2023-03-11T06:08:49.872Z,93612.05
2023-03-11T06:11:18.458Z,93611.11
2023-03-11T06:13:46.992Z,93618.27
2023-03-11T06:16:16.013Z,93618.36
2023-03-11T06:18:44.564Z,93628.44
2023-03-11T06:21:21.243Z,93640.48
2023-03-11T06:23:49.932Z,93650.41
2023-03-11T06:26:20.809Z,93659.39
2023-03-11T06:28:50.392Z,93665.64
2023-03-11T06:31:29.334Z,93673.34
2023-03-11T06:34:02.979Z,93672.41
2023-03-11T06:36:31.459Z,93676.48
2023-03-11T06:39:00.187Z,93684.17
2023-03-11T06:41:28.684Z,93683.48
2023-03-11T06:43:59.739Z,93683.19
2023-03-11T06:46:28.557Z,93686.58
2023-03-11T06:48:57.461Z,93694.11
2023-03-11T06:51:25.635Z,93694.11
2023-03-11T06:53:54.831Z,93701.39
2023-03-11T06:56:23.971Z,93701.37
2023-03-11T06:58:56.512Z,93707.59
2023-03-11T07:01:27.361Z,93709.17
2023-03-11T07:03:56.655Z,93709.98
2023-03-11T07:06:27.500Z,93704.08
2023-03-11T07:09:02.183Z,93716.77
2023-03-11T07:11:31.027Z,93724.59
2023-03-11T07:14:05.911Z,93731.86
2023-03-11T07:16:39.812Z,93732.35
2023-03-11T07:19:13.487Z,93732.29
2023-03-11T07:21:42.207Z,93731.23
2023-03-11T07:24:13.238Z,93739.40
2023-03-11T07:26:44.196Z,93742.59
2023-03-11T07:29:12.458Z,93746.37
2023-03-11T07:31:41.544Z,93746.95
2023-03-11T07:34:13.091Z,93747.59
2023-03-11T07:36:42.885Z,93749.54
2023-03-11T07:39:14.935Z,93758.91
2023-03-11T07:41:43.876Z,93753.09
2023-03-11T07:44:13.757Z,93758.94
2023-03-11T07:46:42.528Z,93757.80
2023-03-11T07:49:12.042Z,93764.55
2023-03-11T07:51:44.080Z,93759.79
2023-03-11T07:54:12.915Z,93766.91
2023-03-11T07:56:41.494Z,93759.71
2023-03-11T07:59:09.521Z,93763.89
2023-03-11T08:01:40.695Z,93761.30
2023-03-11T08:04:14.534Z,93767.16
2023-03-11T08:06:45.622Z,93769.08
2023-03-11T08:09:14.442Z,93770.56
2023-03-11T08:11:42.885Z,93768.97
2023-03-11T08:14:11.769Z,93775.61
2023-03-11T08:16:41.146Z,93779.02
2023-03-11T08:19:12.321Z,93779.08
2023-03-11T08:21:40.766Z,93779.75
2023-03-11T08:24:12.920Z,93789.20
2023-03-11T08:26:41.971Z,93796.17
2023-03-11T08:29:09.992Z,93797.22
2023-03-11T08:31:38.352Z,93799.27
2023-03-11T08:34:11.256Z,93806.20
2023-03-11T08:36:39.657Z,93802.15
2023-03-11T08:39:08.413Z,93813.28
2023-03-11T08:41:38.051Z,93814.40
2023-03-11T08:44:07.614Z,93823.42
2023-03-11T08:46:39.418Z,93825.35
2023-03-11T08:49:07.884Z,93819.80
2023-03-11T08:51:36.769Z,93826.98
2023-03-11T08:54:05.577Z,93826.64
2023-03-11T08:56:33.800Z,93830.05
2023-03-11T08:59:02.271Z,93829.55
2023-03-11T09:01:31.188Z,93833.05
2023-03-11T09:03:59.483Z,93835.02
2023-03-11T09:06:30.526Z,93838.56
2023-03-11T09:08:59.156Z,93840.22
2023-03-11T09:11:27.216Z,93845.63
2023-03-11T09:13:55.415Z,93852.84
2023-03-11T09:16:24.690Z,93848.98
2023-03-11T09:18:52.824Z,93852.38
2023-03-11T09:21:21.076Z,93861.19
2023-03-11T09:23:49.267Z,93865.43
2023-03-11T09:26:17.391Z,93871.48
2023-03-11T09:28:49.030Z,93877.61
2023-03-11T09:31:18.683Z,93878.03
2023-03-11T09:33:47.272Z,93883.84
2023-03-11T09:36:18.481Z,93888.27
2023-03-11T09:38:47.666Z,93893.08
2023-03-11T09:41:18.640Z,93887.55
2023-03-11T09:44:07.875Z,93893.49
2023-03-11T09:47:06.739Z,93889.16
2023-03-11T09:49:56.208Z,93895.29
2023-03-11T09:52:39.815Z,93894.91
2023-03-11T09:55:37.849Z,93899.14
2023-03-11T09:58:13.681Z,93903.29
2023-03-11T10:00:41.978Z,93906.42
2023-03-11T10:03:39.333Z,93911.83
2023-03-11T10:06:22.055Z,93915.39
2023-03-11T10:08:57.105Z,93916.31
2023-03-11T10:11:33.325Z,93921.38
2023-03-11T10:14:21.486Z,93925.48
2023-03-11T10:16:55.415Z,93932.38
2023-03-11T10:19:38.520Z,93937.36
2023-03-11T10:22:17.043Z,93946.32
2023-03-11T10:25:02.465Z,93953.48
2023-03-11T10:27:54.333Z,93953.00
2023-03-11T10:30:41.210Z,93957.11
2023-03-11T10:33:22.747Z,93966.39
2023-03-11T10:35:56.834Z,93968.34
2023-03-11T10:38:32.506Z,93971.77
2023-03-11T10:41:07.415Z,93976.08
2023-03-11T10:43:38.989Z,93973.59
2023-03-11T10:46:17.730Z,93981.90
2023-03-11T10:48:45.671Z,93976.27
2023-03-11T10:51:23.050Z,93985.77
2023-03-11T10:53:54.101Z,93987.73
2023-03-11T10:56:40.142Z,93994.62
2023-03-11T10:59:26.608Z,93997.38
2023-03-11T11:01:59.774Z,93999.84
2023-03-11T11:04:36.673Z,94003.93
2023-03-11T11:07:29.714Z,94006.98
2023-03-11T11:10:14.005Z,94012.13
2023-03-11T11:13:00.816Z,94017.27
2023-03-11T11:15:30.786Z,94021.86
2023-03-11T11:18:15.530Z,94021.04
2023-03-11T11:21:03.452Z,94028.05
2023-03-11T11:23:32.907Z,94031.25
2023-03-11T11:26:04.935Z,94034.85
2023-03-11T11:28:34.094Z,94041.85
2023-03-11T11:31:05.235Z,94046.64
2023-03-11T11:33:38.671Z,94045.53
2023-03-11T11:36:15.116Z,94055.58
2023-03-11T11:38:43.155Z,94060.23
2023-03-11T11:41:18.148Z,94062.37
2023-03-11T11:44:06.047Z,94067.94
2023-03-11T11:46:58.213Z,94070.35
2023-03-11T11:49:31.616Z,94080.25
2023-03-11T11:52:24.376Z,94079.91
2023-03-11T11:54:57.307Z,94087.61
2023-03-11T11:57:25.317Z,94090.11
2023-03-11T11:59:57.484Z,94099.84
2023-03-11T12:02:41.070Z,94105.84
2023-03-11T12:05:24.130Z,94107.55
2023-03-11T12:08:04.424Z,94114.43
2023-03-11T12:10:36.723Z,94128.92
2023-03-11T12:13:16.148Z,94136.91
2023-03-11T12:16:00.016Z,94152.97
2023-03-11T12:18:50.855Z,94163.01
2023-03-11T12:21:46.920Z,94165.02
2023-03-11T12:24:39.517Z,94159.58
2023-03-11T12:27:15.643Z,94184.13
2023-03-11T12:29:49.516Z,94190.25
2023-03-11T12:32:36.105Z,94200.57
2023-03-11T12:35:30.239Z,94203.92
2023-03-11T12:38:13.336Z,94218.87
2023-03-11T12:41:01.116Z,94225.64
2023-03-11T12:43:33.863Z,94230.89
2023-03-11T12:46:10.799Z,94237.45
2023-03-11T12:48:43.566Z,94249.92
2023-03-11T12:51:33.656Z,94257.33
2023-03-11T12:54:29.699Z,94261.54
2023-03-11T12:57:03.856Z,94276.63
2023-03-11T12:59:56.596Z,94276.02
2023-03-11T13:02:31.593Z,94285.64
2023-03-11T13:05:07.818Z,94293.97
2023-03-11T13:07:46.500Z,94302.50
2023-03-11T13:10:17.432Z,94316.81
2023-03-11T13:12:47.833Z,94331.49
2023-03-11T13:15:18.601Z,94339.48
2023-03-11T13:18:26.027Z,94350.62
2023-03-11T13:20:59.393Z,94352.05
2023-03-11T13:23:33.563Z,94361.55
2023-03-11T13:26:22.423Z,94364.36
2023-03-11T13:29:09.740Z,94372.79
2023-03-11T13:31:39.104Z,94372.98
2023-03-11T13:34:07.143Z,94381.89
2023-03-11T13:37:12.261Z,94381.77
2023-03-11T13:40:14.288Z,94397.92
2023-03-11T13:42:50.860Z,94400.52
2023-03-11T13:45:21.772Z,94417.63
2023-03-11T13:47:50.122Z,94419.55
2023-03-11T13:50:32.279Z,94425.86
2023-03-11T13:53:03.812Z,94428.80
2023-03-11T13:55:40.350Z,94435.77
2023-03-11T13:58:20.439Z,94442.34
2023-03-11T14:00:51.015Z,94451.50
2023-03-11T14:03:22.335Z,94458.30
2023-03-11T14:06:02.630Z,94466.70
2023-03-11T14:08:38.227Z,94472.64
2023-03-11T14:11:12.020Z,94477.80
2023-03-11T14:13:39.916Z,94483.01
2023-03-11T14:16:13.798Z,94490.67
2023-03-11T14:18:43.047Z,94499.04
2023-03-11T14:21:24.345Z,94505.31
2023-03-11T14:23:55.482Z,94509.41
2023-03-11T14:26:35.195Z,94520.70
2023-03-11T14:29:10.836Z,94528.84
2023-03-11T14:31:41.562Z,94531.79
2023-03-11T14:34:18.607Z,94541.44
2023-03-11T14:36:57.086Z,94547.78
2023-03-11T14:39:36.696Z,94554.17
2023-03-11T14:42:23.832Z,94560.83
2023-03-11T14:45:07.466Z,94567.83
2023-03-11T14:47:53.583Z,94580.20
2023-03-11T14:50:27.731Z,94590.91
2023-03-11T14:53:09.221Z,94593.80
2023-03-11T14:55:40.488Z,94601.77
2023-03-11T14:58:21.289Z,94607.91
2023-03-11T15:01:13.014Z,94614.24
2023-03-11T15:03:54.867Z,94616.42
2023-03-11T15:06:29.031Z,94618.68
2023-03-11T15:08:57.157Z,94622.92
2023-03-11T15:11:28.570Z,94629.05
2023-03-11T15:14:17.340Z,94630.76
2023-03-11T15:16:45.470Z,94636.62
2023-03-11T15:19:28.675Z,94649.00
2023-03-11T15:22:21.497Z,94656.91
2023-03-11T15:24:51.834Z,94664.68
2023-03-11T15:27:29.507Z,94674.58
2023-03-11T15:29:59.313Z,94678.58
2023-03-11T15:32:30.471Z,94684.75
2023-03-11T15:35:04.669Z,94692.58
2023-03-11T15:37:33.285Z,94696.86
2023-03-11T15:40:26.161Z,94698.85
2023-03-11T15:43:16.333Z,94707.61
2023-03-11T15:45:44.463Z,94715.61
2023-03-11T15:48:13.837Z,94721.48
2023-03-11T15:50:54.460Z,94726.33
2023-03-11T15:53:26.191Z,94733.45
2023-03-11T15:56:06.348Z,94740.74
2023-03-11T15:58:37.537Z,94744.30
2023-03-11T16:01:05.796Z,94751.23
2023-03-11T16:03:33.812Z,94754.64
2023-03-11T16:06:01.894Z,94752.61
2023-03-11T16:08:29.817Z,94757.04
2023-03-11T16:10:58.168Z,94765.45
2023-03-11T16:13:26.128Z,94771.86
2023-03-11T16:15:54.364Z,94780.16
2023-03-11T16:18:22.389Z,94775.02
2023-03-11T16:20:53.178Z,94779.02
2023-03-11T16:23:25.196Z,94775.96
2023-03-11T16:26:03.957Z,94780.56
2023-03-11T16:28:32.012Z,94783.99
2023-03-11T16:31:00.048Z,94790.95
2023-03-11T16:33:28.098Z,94794.95
2023-03-11T16:35:56.104Z,94801.71
2023-03-11T16:38:24.099Z,94805.92
2023-03-11T16:40:56.838Z,94810.16
2023-03-11T16:43:25.193Z,94815.02
2023-03-11T16:45:56.487Z,94816.55
2023-03-11T16:48:25.872Z,94823.23
2023-03-11T16:50:53.883Z,94826.54
2023-03-11T16:53:22.053Z,94836.64
2023-03-11T16:55:50.103Z,94835.31
2023-03-11T16:58:18.309Z,94844.25
2023-03-11T17:00:46.826Z,94852.71
2023-03-11T17:03:18.247Z,94853.74
2023-03-11T17:05:49.286Z,94861.92
2023-03-11T17:08:18.510Z,94861.98
2023-03-11T17:10:46.866Z,94876.39
2023-03-11T17:13:17.051Z,94877.94
2023-03-11T17:15:57.337Z,94888.23
2023-03-11T17:18:25.729Z,94891.73
2023-03-11T17:20:54.225Z,94893.28
2023-03-11T17:23:22.362Z,94907.11
2023-03-11T17:25:50.415Z,94914.25
2023-03-11T17:28:18.414Z,94921.29
2023-03-11T17:30:46.629Z,94923.77
2023-03-11T17:33:14.554Z,94934.70
2023-03-11T17:35:42.572Z,94937.71
2023-03-11T17:38:10.749Z,94947.33
2023-03-11T17:40:38.756Z,94950.57
2023-03-11T17:43:07.788Z,94963.50
2023-03-11T17:45:38.643Z,94967.27
2023-03-11T17:48:06.792Z,94968.54
2023-03-11T17:50:38.689Z,94976.57
2023-03-11T17:53:07.606Z,94976.95
2023-03-11T17:55:39.588Z,94985.11
2023-03-11T17:58:08.090Z,94988.86
2023-03-11T18:00:36.345Z,94994.21
2023-03-11T18:03:05.665Z,94995.54
2023-03-11T18:05:36.923Z,95003.97
2023-03-11T18:08:05.522Z,95009.34
2023-03-11T18:10:33.965Z,95018.94
2023-03-11T18:13:02.027Z,95024.70
2023-03-11T18:15:30.794Z,95033.60
2023-03-11T18:17:58.941Z,95041.81
2023-03-11T18:20:26.979Z,95049.60
2023-03-11T18:22:56.054Z,95052.92
2023-03-11T18:25:24.149Z,95062.21
2023-03-11T18:27:52.113Z,95063.38
2023-03-11T18:30:20.349Z,95066.91
2023-03-11T18:32:48.476Z,95073.57
2023-03-11T18:35:17.722Z,95076.14
2023-03-11T18:37:46.715Z,95075.03
2023-03-11T18:40:14.983Z,95075.98
2023-03-11T18:42:43.078Z,95080.40
2023-03-11T18:45:12.394Z,95086.60
2023-03-11T18:47:40.929Z,95086.33
2023-03-11T18:50:09.924Z,95089.59
2023-03-11T18:52:38.094Z,95090.98
2023-03-11T18:55:06.847Z,95092.25
2023-03-11T18:57:35.232Z,95101.02
2023-03-11T19:00:04.347Z,95101.34
2023-03-11T19:02:32.484Z,95103.52
2023-03-11T19:05:09.069Z,95108.77
2023-03-11T19:07:37.523Z,95117.19
2023-03-11T19:10:09.161Z,95126.08
2023-03-11T19:12:38.195Z,95123.56
2023-03-11T19:15:07.056Z,95137.21
2023-03-11T19:17:35.119Z,95143.02
2023-03-11T19:20:06.079Z,95148.34
2023-03-11T19:22:37.763Z,95150.71
2023-03-11T19:25:06.245Z,95159.51
2023-03-11T19:27:35.263Z,95156.70
2023-03-11T19:30:03.856Z,95168.45
2023-03-11T19:32:31.950Z,95171.09
2023-03-11T19:34:59.967Z,95174.39
2023-03-11T19:37:30.221Z,95176.89
2023-03-11T19:39:58.879Z,95179.71
2023-03-11T19:42:26.859Z,95188.13
2023-03-11T19:44:56.474Z,95185.27
2023-03-11T19:47:24.454Z,95189.73
2023-03-11T19:49:52.473Z,95196.17
2023-03-11T19:52:20.544Z,95205.04
2023-03-11T19:54:48.782Z,95208.99
2023-03-11T19:57:17.216Z,95215.73
2023-03-11T19:59:45.178Z,95216.99
2023-03-11T20:02:13.748Z,95222.66
2023-03-11T20:04:43.235Z,95219.69
2023-03-11T20:07:11.422Z,95224.67
2023-03-11T20:09:39.512Z,95229.04
2023-03-11T20:12:07.889Z,95233.75
2023-03-11T20:14:35.809Z,95239.34
2023-03-11T20:17:03.945Z,95242.20
2023-03-11T20:19:32.158Z,95245.20
2023-03-11T20:22:00.225Z,95247.29
2023-03-11T20:24:30.681Z,95246.60
2023-03-11T20:26:59.086Z,95250.77
2023-03-11T20:29:27.416Z,95254.63
2023-03-11T20:31:55.678Z,95254.77
2023-03-11T20:34:23.723Z,95253.82
2023-03-11T20:36:51.768Z,95256.66
2023-03-11T20:39:19.750Z,95260.97
2023-03-11T20:41:47.756Z,95261.60
2023-03-11T20:44:15.757Z,95263.61
2023-03-11T20:46:44.128Z,95268.89
2023-03-11T20:49:12.337Z,95269.45
2023-03-11T20:51:41.884Z,95269.08
2023-03-11T20:54:12.119Z,95271.83
2023-03-11T20:56:40.708Z,95273.04
2023-03-11T20:59:13.675Z,95274.42
2023-03-11T21:01:41.802Z,95274.80
2023-03-11T21:04:10.586Z,95274.04
2023-03-11T21:06:41.352Z,95275.46
2023-03-11T21:09:14.647Z,95273.42
2023-03-11T21:11:42.857Z,95275.05
2023-03-11T21:14:14.415Z,95273.89
2023-03-11T21:16:42.812Z,95275.35
2023-03-11T21:19:13.473Z,95277.21
2023-03-11T21:21:41.679Z,95281.00
2023-03-11T21:24:11.165Z,95285.49
2023-03-11T21:26:39.320Z,95283.56
2023-03-11T21:29:07.862Z,95284.23
2023-03-11T21:31:37.054Z,95288.52
2023-03-11T21:34:05.204Z,95288.21
2023-03-11T21:36:33.297Z,95287.19
2023-03-11T21:39:03.576Z,95287.42
2023-03-11T21:41:32.021Z,95289.88
2023-03-11T21:44:00.471Z,95293.37
2023-03-11T21:46:31.230Z,95295.40
2023-03-11T21:49:00.629Z,95297.58
2023-03-11T21:51:30.239Z,95300.67
2023-03-11T21:53:59.253Z,95305.83
2023-03-11T21:56:27.768Z,95301.64
2023-03-11T21:58:56.187Z,95304.68
2023-03-11T22:01:24.252Z,95306.84
2023-03-11T22:03:52.462Z,95310.18
2023-03-11T22:06:20.937Z,95308.42
2023-03-11T22:08:49.639Z,95308.62
2023-03-11T22:11:19.465Z,95310.30
2023-03-11T22:13:51.329Z,95313.92
2023-03-11T22:16:21.443Z,95314.33
2023-03-11T22:18:50.106Z,95317.41
2023-03-11T22:21:20.631Z,95314.52
2023-03-11T22:23:49.285Z,95317.57
2023-03-11T22:26:17.354Z,95319.04
2023-03-11T22:28:48.240Z,95317.77
2023-03-11T22:31:18.621Z,95320.00
2023-03-11T22:33:46.761Z,95324.80
2023-03-11T22:36:14.830Z,95328.26
2023-03-11T22:38:45.174Z,95330.45
2023-03-11T22:41:14.148Z,95335.50
2023-03-11T22:43:42.184Z,95339.89
2023-03-11T22:46:10.333Z,95337.70
2023-03-11T22:48:41.077Z,95344.79
2023-03-11T22:51:09.443Z,95346.86
2023-03-11T22:53:37.405Z,95349.54
2023-03-11T22:56:11.411Z,95352.47
2023-03-11T22:58:40.143Z,95351.34
2023-03-11T23:01:08.729Z,95346.33
2023-03-11T23:03:37.784Z,95347.71
2023-03-11T23:06:10.728Z,95350.73
2023-03-11T23:08:38.708Z,95350.21
2023-03-11T23:11:09.951Z,95350.48
2023-03-11T23:13:39.530Z,95350.20
2023-03-11T23:16:18.854Z,95352.73
2023-03-11T23:18:50.339Z,95353.95
2023-03-11T23:21:23.624Z,95360.16
2023-03-11T23:23:52.411Z,95360.86
2023-03-11T23:26:23.583Z,95362.19
2023-03-11T23:28:53.897Z,95364.20
2023-03-11T23:31:25.200Z,95363.52
2023-03-11T23:33:59.759Z,95364.15
2023-03-11T23:36:30.481Z,95365.23
2023-03-11T23:38:58.859Z,95367.33
2023-03-11T23:41:29.629Z,95365.74
2023-03-11T23:43:57.708Z,95366.98
2023-03-11T23:46:26.143Z,95370.48
2023-03-11T23:48:54.142Z,95369.73
2023-03-11T23:51:22.232Z,95377.11
2023-03-11T23:53:50.338Z,95379.57
2023-03-11T23:56:19.156Z,95383.35
2023-03-11T23:58:47.083Z,95386.73
